Time;durP1;ratioP1;P1;durP2;ratioP2;P2;SDS_P1;SDS_P2;PMS_P1;PMS_P2;Temp;Humidity;BMP_temperature;BMP_pressure;BME280_temperature;BME280_humidity;BME280_pressure;Samples;Min_cycle;Max_cycle;Signal;HPM_P1;HPM_P2
2021/11/30 07:02:26;;;;;;;5.97;1.10;;;9.00;99.90;;;;;;5018840;23;20095;-88
2021/11/30 07:04:55;;;;;;;7.25;1.58;;;8.90;99.90;;;;;;4965937;28;20051;-87
2021/11/30 07:10:47;;;;;;;8.35;1.15;;;8.90;99.90;;;;;;4964265;28;20046;-85
2021/11/30 07:15:51;;;;;;;8.13;1.23;;;8.80;99.90;;;;;;4963243;28;20055;-84
2021/11/30 07:18:19;;;;;;;4.68;1.00;;;8.80;99.90;;;;;;4959299;28;20051;-83
2021/11/30 07:20:46;;;;;;;9.63;1.30;;;8.80;99.90;;;;;;4972950;28;20050;-85
2021/11/30 07:23:13;;;;;;;7.05;1.08;;;8.70;99.90;;;;;;4972763;28;20050;-84
2021/11/30 07:25:41;;;;;;;6.32;1.13;;;8.70;99.90;;;;;;4972533;28;20042;-85
2021/11/30 07:28:08;;;;;;;11.15;1.20;;;8.70;99.90;;;;;;4972584;28;20081;-84
2021/11/30 07:30:35;;;;;;;10.55;1.13;;;8.80;99.90;;;;;;4972954;28;20047;-85
2021/11/30 07:33:03;;;;;;;9.13;1.48;;;8.80;99.90;;;;;;4972427;28;20043;-85
2021/11/30 07:35:30;;;;;;;7.60;1.10;;;8.80;99.90;;;;;;4954453;28;20047;-85
2021/11/30 07:37:57;;;;;;;5.93;0.88;;;8.80;99.90;;;;;;4972496;28;20145;-85
2021/11/30 07:40:24;;;;;;;6.38;0.93;;;8.80;99.90;;;;;;4971366;28;20038;-85
2021/11/30 07:42:51;;;;;;;5.03;1.00;;;8.80;99.90;;;;;;4972074;28;20082;-85
2021/11/30 07:45:19;;;;;;;8.75;0.80;;;8.80;99.90;;;;;;4971808;28;20109;-84
2021/11/30 07:47:46;;;;;;;4.72;0.93;;;8.80;99.90;;;;;;4971952;28;20547;-86
2021/11/30 07:50:13;;;;;;;3.45;0.68;;;8.80;99.90;;;;;;4971214;28;20109;-84
2021/11/30 07:52:41;;;;;;;4.90;0.80;;;8.80;99.90;;;;;;4971248;28;20047;-84
2021/11/30 07:55:11;;;;;;;7.35;1.02;;;8.80;99.90;;;;;;4969501;28;20121;-84
2021/11/30 07:57:38;;;;;;;6.30;0.90;;;8.70;99.90;;;;;;4971477;28;20059;-85
2021/11/30 08:00:16;;;;;;;9.60;1.00;;;8.70;99.90;;;;;;4963364;28;20058;-84
2021/11/30 08:02:44;;;;;;;8.13;1.08;;;8.70;99.90;;;;;;4972056;28;20042;-84
2021/11/30 08:05:13;;;;;;;6.13;1.10;;;8.70;99.90;;;;;;4954611;28;20058;-85
2021/11/30 08:07:41;;;;;;;8.05;1.40;;;8.70;99.90;;;;;;4956365;28;20456;-83
2021/11/30 08:10:17;;;;;;;6.78;0.90;;;8.70;99.90;;;;;;4969223;28;20438;-82
2021/11/30 08:12:44;;;;;;;3.65;1.02;;;8.70;99.90;;;;;;4965938;28;20054;-84
2021/11/30 08:15:13;;;;;;;2.65;0.65;;;8.70;99.90;;;;;;4982371;28;20047;-84
2021/11/30 08:17:58;;;;;;;3.10;0.95;;;8.70;99.90;;;;;;4971226;28;20057;-82
2021/11/30 08:20:25;;;;;;;5.50;0.82;;;8.70;99.90;;;;;;4959091;28;20106;-84
2021/11/30 08:22:52;;;;;;;5.75;0.88;;;8.70;99.90;;;;;;4955965;28;20478;-84
2021/11/30 08:25:19;;;;;;;6.30;0.90;;;8.70;99.90;;;;;;4969613;28;20577;-85
2021/11/30 08:27:46;;;;;;;4.88;0.70;;;8.80;99.90;;;;;;4973064;28;20051;-84
2021/11/30 08:30:16;;;;;;;7.50;0.70;;;8.80;99.90;;;;;;4971644;28;20582;-82
2021/11/30 08:32:48;;;;;;;5.57;0.70;;;8.80;99.90;;;;;;4968555;28;20514;-82
2021/11/30 08:35:15;;;;;;;4.68;0.80;;;8.90;99.90;;;;;;4968534;28;20050;-84
2021/11/30 08:37:42;;;;;;;8.38;1.52;;;9.00;99.90;;;;;;4971035;28;20051;-84
2021/11/30 08:40:11;;;;;;;6.95;1.42;;;9.00;99.90;;;;;;4971471;28;20047;-83
2021/11/30 08:42:38;;;;;;;6.05;0.90;;;9.10;99.90;;;;;;4972071;28;20475;-84
2021/11/30 08:45:07;;;;;;;7.45;1.38;;;9.20;99.90;;;;;;4971840;28;20035;-83
2021/11/30 08:47:34;;;;;;;6.68;0.93;;;9.30;99.90;;;;;;4972550;28;20051;-84
2021/11/30 08:50:04;;;;;;;7.40;0.90;;;9.30;99.90;;;;;;4971808;28;20090;-83
2021/11/30 08:52:34;;;;;;;9.38;0.90;;;9.40;99.90;;;;;;4971259;28;20094;-83
2021/11/30 08:55:01;;;;;;;6.95;1.17;;;9.50;99.90;;;;;;4971766;28;20105;-84
2021/11/30 08:57:30;;;;;;;5.20;1.08;;;9.60;99.90;;;;;;4971696;28;20483;-84
2021/11/30 08:59:57;;;;;;;5.88;0.93;;;9.60;99.90;;;;;;4972339;28;20105;-83
2021/11/30 09:02:25;;;;;;;5.45;0.82;;;9.70;99.90;;;;;;4970979;28;20077;-83
2021/11/30 09:04:52;;;;;;;7.60;0.98;;;9.70;99.90;;;;;;4971355;28;20050;-83
2021/11/30 09:07:19;;;;;;;6.75;1.00;;;9.80;99.90;;;;;;4971132;28;20113;-83
2021/11/30 09:09:48;;;;;;;9.20;0.90;;;9.80;99.90;;;;;;4971758;28;20047;-83
2021/11/30 09:12:17;;;;;;;8.60;1.23;;;9.90;99.90;;;;;;4971772;28;20072;-83
2021/11/30 09:14:45;;;;;;;6.13;0.80;;;9.90;99.90;;;;;;4970184;28;20468;-83
2021/11/30 09:17:13;;;;;;;4.65;0.70;;;9.90;99.90;;;;;;4970948;28;20050;-84
2021/11/30 09:19:40;;;;;;;9.27;1.00;;;10.00;99.90;;;;;;4970200;28;20140;-83
2021/11/30 09:22:08;;;;;;;6.05;0.85;;;9.90;99.90;;;;;;4969979;28;20047;-81
2021/11/30 09:24:35;;;;;;;3.27;0.60;;;9.90;99.90;;;;;;4971212;28;20051;-82
2021/11/30 09:27:02;;;;;;;3.22;0.73;;;9.90;99.90;;;;;;4971563;28;20616;-82
2021/11/30 09:29:31;;;;;;;6.03;1.20;;;9.90;99.90;;;;;;4970125;28;20042;-82
2021/11/30 09:31:58;;;;;;;4.97;1.05;;;9.90;99.90;;;;;;4971042;28;20579;-83
2021/11/30 09:34:25;;;;;;;4.88;0.70;;;10.00;99.90;;;;;;4970606;28;20039;-84
2021/11/30 09:36:54;;;;;;;6.70;0.85;;;10.00;99.90;;;;;;4970806;28;20054;-83
2021/11/30 09:39:23;;;;;;;7.30;1.00;;;10.10;99.90;;;;;;4970049;28;20534;-83
2021/11/30 09:41:50;;;;;;;3.97;0.70;;;10.10;99.90;;;;;;4970581;28;20039;-83
2021/11/30 09:44:18;;;;;;;6.65;0.85;;;10.20;99.90;;;;;;4958469;28;20050;-83
2021/11/30 09:46:45;;;;;;;5.50;0.77;;;10.30;99.90;;;;;;4961478;28;20109;-83
2021/11/30 09:49:14;;;;;;;4.15;0.80;;;10.30;99.90;;;;;;4969972;28;20499;-83
2021/11/30 09:51:41;;;;;;;5.03;0.70;;;10.40;99.90;;;;;;4969550;28;20471;-83
2021/11/30 09:54:08;;;;;;;4.70;1.33;;;10.40;99.90;;;;;;4969221;28;20050;-83
2021/11/30 09:56:35;;;;;;;4.80;0.73;;;10.40;99.90;;;;;;4970269;28;20092;-83
2021/11/30 09:59:02;;;;;;;2.85;0.68;;;10.50;99.90;;;;;;4970718;28;20058;-84
2021/11/30 10:01:29;;;;;;;3.53;0.50;;;10.50;99.90;;;;;;4959082;28;20069;-84
2021/11/30 10:03:57;;;;;;;5.43;0.75;;;10.60;99.90;;;;;;4935930;29;20051;-83
2021/11/30 10:06:23;;;;;;;6.03;0.70;;;10.60;99.90;;;;;;4934277;29;20107;-83
2021/11/30 10:08:55;;;;;;;5.30;0.70;;;10.70;99.90;;;;;;4951162;28;20520;-82
2021/11/30 10:11:34;;;;;;;7.03;0.80;;;10.70;99.90;;;;;;4950336;28;20463;-83
2021/11/30 10:14:09;;;;;;;2.80;0.65;;;10.80;99.90;;;;;;4934195;29;20055;-83
2021/11/30 10:16:37;;;;;;;4.78;0.70;;;10.80;99.90;;;;;;4950543;28;20047;-83
2021/11/30 10:19:05;;;;;;;4.68;0.88;;;10.80;99.90;;;;;;4933593;28;20137;-81
2021/11/30 10:21:33;;;;;;;5.20;0.90;;;10.90;99.90;;;;;;4950602;29;20110;-82
2021/11/30 10:24:02;;;;;;;9.27;0.95;;;10.90;99.90;;;;;;4948014;28;20055;-83
2021/11/30 10:26:35;;;;;;;4.05;0.95;;;11.00;99.90;;;;;;4950320;28;20115;-82
2021/11/30 10:29:04;;;;;;;4.50;0.65;;;11.10;99.90;;;;;;4950208;28;20075;-82
2021/11/30 10:31:36;;;;;;;;;;;11.10;99.90;;;;;;4950650;28;20720;-82
2021/11/30 10:34:16;;;;;;;7.90;0.77;;;11.20;99.90;;;;;;4950604;29;19977;-83
2021/11/30 10:36:57;;;;;;;2.97;0.50;;;11.30;99.90;;;;;;4950235;29;20471;-82
2021/11/30 10:39:30;;;;;;;4.53;0.50;;;11.50;99.90;;;;;;4931260;29;20060;-82
2021/11/30 10:42:18;;;;;;;3.42;0.47;;;11.50;99.90;;;;;;4950165;28;20614;-83
2021/11/30 10:44:50;;;;;;;4.32;0.50;;;11.60;99.90;;;;;;4950125;28;20573;-82
2021/11/30 10:47:22;;;;;;;2.53;0.68;;;11.70;99.90;;;;;;4949566;28;20051;-81
2021/11/30 10:50:09;;;;;;;6.32;1.20;;;11.70;99.90;;;;;;4933899;29;20105;-82
2021/11/30 10:52:36;;;;;;;3.70;0.60;;;11.80;99.90;;;;;;4950022;28;20051;-82
2021/11/30 10:55:12;;;;;;;2.40;0.60;;;11.80;99.90;;;;;;4950440;29;20102;-82
2021/11/30 10:57:41;;;;;;;3.22;0.60;;;11.90;99.90;;;;;;4949809;29;20054;-82
2021/11/30 11:00:16;;;;;;;6.80;0.95;;;11.90;99.90;;;;;;4948457;28;20111;-82
2021/11/30 11:03:28;;;;;;;2.33;0.50;;;12.00;99.90;;;;;;4949877;28;20102;-81
2021/11/30 11:05:38;;;;;;;1.13;0.40;;;12.00;99.90;;;;;;4942043;28;20040;-83
2021/11/30 11:08:13;;;;;;;3.35;0.77;;;12.00;99.90;;;;;;4950250;28;20055;-81
2021/11/30 11:10:45;;;;;;;4.47;0.70;;;12.10;99.90;;;;;;4949756;28;20091;-82
2021/11/30 11:13:23;;;;;;;2.92;0.63;;;12.10;99.90;;;;;;4949651;28;20099;-82
2021/11/30 11:15:52;;;;;;;1.90;0.30;;;12.20;99.90;;;;;;4950183;29;20047;-82
2021/11/30 11:18:21;;;;;;;1.95;0.68;;;12.20;99.90;;;;;;4949791;28;20059;-83
2021/11/30 11:20:50;;;;;;;1.42;0.30;;;12.20;99.90;;;;;;4949638;28;20094;-82
2021/11/30 11:23:23;;;;;;;0.95;0.40;;;12.20;99.90;;;;;;4949385;28;20473;-82
2021/11/30 11:25:54;;;;;;;2.80;0.45;;;12.20;99.90;;;;;;4945254;28;20074;-82
2021/11/30 11:28:22;;;;;;;2.33;0.30;;;12.20;99.90;;;;;;4949864;28;20873;-83
2021/11/30 11:30:50;;;;;;;2.85;0.30;;;12.30;99.90;;;;;;4935869;29;20055;-82
2021/11/30 11:33:18;;;;;;;3.08;0.30;;;12.30;99.90;;;;;;4953269;28;20047;-82
2021/11/30 11:35:45;;;;;;;2.05;0.22;;;12.30;99.90;;;;;;4953433;28;20098;-83
2021/11/30 11:38:13;;;;;;;0.95;0.10;;;12.30;99.90;;;;;;4953047;28;20051;-83
2021/11/30 11:40:41;;;;;;;2.83;0.40;;;12.30;99.90;;;;;;4953204;28;20043;-82
2021/11/30 11:43:08;;;;;;;0.82;0.20;;;12.30;99.90;;;;;;4953010;28;20094;-82
2021/11/30 11:45:35;;;;;;;1.00;0.22;;;12.30;99.90;;;;;;4953037;29;20401;-82
2021/11/30 11:48:07;;;;;;;0.98;0.15;;;12.30;99.90;;;;;;4936446;29;20055;-82
2021/11/30 11:50:49;;;;;;;1.50;0.22;;;12.30;99.90;;;;;;4952737;28;20047;-82
2021/11/30 11:53:30;;;;;;;2.00;0.50;;;12.30;99.90;;;;;;4951864;28;20094;-81
2021/11/30 11:56:11;;;;;;;0.73;0.32;;;12.30;99.90;;;;;;4940995;29;20075;-81
2021/11/30 11:58:40;;;;;;;1.75;0.30;;;12.30;99.90;;;;;;4948266;29;20564;-80
2021/11/30 12:01:12;;;;;;;2.28;0.40;;;12.30;99.90;;;;;;4955547;28;20067;-80
2021/11/30 12:03:58;;;;;;;2.22;0.60;;;12.30;99.90;;;;;;4965919;28;20121;-81
2021/11/30 12:06:28;;;;;;;3.72;0.70;;;12.20;99.90;;;;;;4964259;28;20062;-80
2021/11/30 12:09:18;;;;;;;3.78;0.70;;;12.10;99.90;;;;;;4966651;28;20058;-81
2021/11/30 12:11:52;;;;;;;2.75;0.50;;;12.00;99.90;;;;;;4966154;28;20039;-80
2021/11/30 12:14:22;;;;;;;4.85;0.50;;;11.90;99.90;;;;;;4967183;28;20051;-81
2021/11/30 12:17:15;;;;;;;2.97;0.55;;;12.00;99.90;;;;;;4964754;28;20465;-80
2021/11/30 12:20:03;;;;;;;5.95;0.60;;;12.00;99.90;;;;;;4961789;28;20054;-81
2021/11/30 12:22:46;;;;;;;1.58;0.30;;;12.00;99.90;;;;;;4960783;28;20411;-82
2021/11/30 12:25:24;;;;;;;4.93;0.60;;;12.00;99.90;;;;;;4979993;28;20043;-82
2021/11/30 12:27:55;;;;;;;3.92;0.88;;;12.00;99.90;;;;;;4965590;28;20864;-81
2021/11/30 12:30:46;;;;;;;4.97;0.52;;;12.10;99.90;;;;;;4966094;28;20050;-82
2021/11/30 12:33:18;;;;;;;3.20;0.80;;;12.20;99.90;;;;;;4955430;28;20195;-82
2021/11/30 12:36:06;;;;;;;3.95;0.40;;;12.20;99.90;;;;;;4962058;28;20416;-83
2021/11/30 12:38:36;;;;;;;2.97;0.30;;;12.30;99.90;;;;;;4964046;28;20035;-81
2021/11/30 12:41:22;;;;;;;2.78;0.68;;;12.30;99.90;;;;;;4963067;28;20283;-82
2021/11/30 12:43:51;;;;;;;2.63;0.57;;;12.40;99.90;;;;;;4962296;28;20050;-82
2021/11/30 12:46:37;;;;;;;3.60;0.60;;;12.40;99.90;;;;;;4963194;28;20053;-82
2021/11/30 12:49:23;;;;;;;3.80;0.40;;;12.50;99.90;;;;;;4963844;28;20047;-83
2021/11/30 12:52:24;;;;;;;5.15;0.82;;;12.50;99.90;;;;;;4967381;28;20043;-81
2021/11/30 12:54:59;;;;;;;3.38;0.60;;;12.40;99.90;;;;;;4888723;29;20156;-82
2021/11/30 12:57:29;;;;;;;2.83;0.45;;;12.30;99.90;;;;;;4885623;29;20052;-81
2021/11/30 13:00:20;;;;;;;4.10;0.50;;;12.30;99.90;;;;;;4885541;29;20110;-83
2021/11/30 13:02:50;;;;;;;4.13;0.60;;;12.20;99.90;;;;;;4850987;29;20053;-83
2021/11/30 13:05:19;;;;;;;5.68;0.75;;;12.10;99.90;;;;;;4849805;29;20045;-82
2021/11/30 13:07:47;;;;;;;3.50;0.73;;;12.10;99.90;;;;;;4850833;29;20045;-82
2021/11/30 13:10:18;;;;;;;3.28;0.60;;;12.00;99.90;;;;;;4850266;29;20467;-82
2021/11/30 13:12:46;;;;;;;5.18;0.80;;;12.00;99.90;;;;;;4850770;29;20110;-82
2021/11/30 13:15:13;;;;;;;3.90;0.60;;;12.00;99.90;;;;;;4851626;29;20066;-82
2021/11/30 13:17:42;;;;;;;2.78;0.50;;;12.00;99.90;;;;;;4851439;29;20069;-82
2021/11/30 13:20:11;;;;;;;;;;;12.00;99.90;;;;;;4851119;29;20053;-82
2021/11/30 13:22:39;;;;;;;2.97;0.73;;;12.00;99.90;;;;;;4836173;29;19931;-81
2021/11/30 13:25:29;;;;;;;4.68;0.50;;;12.10;99.90;;;;;;4850985;29;20055;-82
2021/11/30 13:27:57;;;;;;;2.95;0.80;;;12.10;99.90;;;;;;4851386;29;20050;-84
2021/11/30 13:30:27;;;;;;;2.20;0.60;;;12.20;99.90;;;;;;4890110;28;20081;-83
2021/11/30 13:33:08;;;;;;;4.82;0.88;;;12.10;99.90;;;;;;4946708;28;20047;-82
2021/11/30 13:35:41;;;;;;;3.72;0.70;;;12.20;99.90;;;;;;4946075;28;20069;-82
2021/11/30 13:38:12;;;;;;;4.55;0.82;;;12.20;99.90;;;;;;4944411;28;20047;-82
2021/11/30 13:40:45;;;;;;;3.67;0.70;;;12.20;99.90;;;;;;4941668;28;20043;-82
2021/11/30 13:43:12;;;;;;;2.40;0.70;;;12.20;99.90;;;;;;4946568;28;20047;-82
2021/11/30 13:45:49;;;;;;;2.28;0.65;;;12.20;99.90;;;;;;4947703;28;20524;-82
2021/11/30 13:48:23;;;;;;;3.50;0.60;;;12.20;99.90;;;;;;4947670;28;20078;-83
2021/11/30 13:50:50;;;;;;;5.93;1.23;;;12.10;99.90;;;;;;4947152;28;20050;-82
2021/11/30 13:53:21;;;;;;;2.65;0.50;;;12.10;99.90;;;;;;4945848;28;20425;-82
2021/11/30 13:55:53;;;;;;;3.10;0.40;;;12.10;99.90;;;;;;4947011;28;20105;-82
2021/11/30 13:58:52;;;;;;;2.22;0.30;;;12.10;99.90;;;;;;4946552;28;20055;-82
2021/11/30 14:01:38;;;;;;;5.10;0.50;;;12.10;99.90;;;;;;4944101;28;20051;-82
2021/11/30 14:04:12;;;;;;;2.97;0.60;;;12.10;99.90;;;;;;4941562;28;20047;-83
2021/11/30 14:06:39;;;;;;;2.25;0.40;;;12.10;99.90;;;;;;4944746;28;20051;-82
2021/11/30 14:09:11;;;;;;;1.35;0.43;;;12.00;99.90;;;;;;4943238;28;20047;-82
2021/11/30 14:11:54;;;;;;;2.13;0.30;;;12.00;99.90;;;;;;4945643;29;20062;-83
2021/11/30 14:14:34;;;;;;;3.40;0.50;;;12.00;99.90;;;;;;4944860;28;20058;-82
2021/11/30 14:17:06;;;;;;;2.90;0.40;;;12.00;99.90;;;;;;4944122;29;20098;-83
2021/11/30 14:19:42;;;;;;;1.25;0.50;;;11.90;99.90;;;;;;4915793;29;20419;-82
2021/11/30 14:22:15;;;;;;;1.25;0.32;;;11.90;99.90;;;;;;4941685;28;20098;-83
2021/11/30 14:24:52;;;;;;;6.13;0.95;;;11.90;99.90;;;;;;4941265;29;20039;-82
2021/11/30 14:27:20;;;;;;;3.97;0.30;;;11.90;99.90;;;;;;4946777;28;20595;-82
2021/11/30 14:29:49;;;;;;;4.28;0.52;;;11.80;99.90;;;;;;4946863;29;20055;-82
2021/11/30 14:32:24;;;;;;;5.03;0.50;;;11.80;99.90;;;;;;4946365;28;20469;-81
2021/11/30 14:35:13;;;;;;;2.70;0.30;;;11.70;99.90;;;;;;4940976;29;20110;-82
2021/11/30 14:37:56;;;;;;;5.72;0.40;;;11.70;99.90;;;;;;4945250;29;20137;-82
2021/11/30 14:40:26;;;;;;;3.45;0.50;;;11.70;99.90;;;;;;4946610;29;20110;-82
2021/11/30 14:43:03;;;;;;;3.33;0.60;;;11.60;99.90;;;;;;4946974;29;20444;-82
2021/11/30 14:45:44;;;;;;;2.45;0.50;;;11.60;99.90;;;;;;4943345;29;20086;-82
2021/11/30 14:48:35;;;;;;;4.00;0.60;;;11.50;99.90;;;;;;4945470;29;20567;-83
2021/11/30 14:51:14;;;;;;;2.78;0.45;;;11.50;99.90;;;;;;4946709;29;20054;-82
2021/11/30 14:53:46;;;;;;;6.65;0.88;;;11.50;99.90;;;;;;4946657;29;20114;-82
2021/11/30 14:56:26;;;;;;;4.30;0.73;;;11.50;99.90;;;;;;4940807;29;20098;-82
2021/11/30 14:59:03;;;;;;;6.05;0.90;;;11.50;99.90;;;;;;4947130;28;20051;-83
2021/11/30 15:01:38;;;;;;;7.28;0.80;;;11.40;99.90;;;;;;4956473;28;20432;-82
2021/11/30 15:04:10;;;;;;;5.60;0.80;;;11.40;99.90;;;;;;4967840;28;20057;-83
2021/11/30 15:06:43;;;;;;;2.20;0.60;;;11.40;99.90;;;;;;4970339;28;20046;-83
2021/11/30 15:09:29;;;;;;;5.93;0.73;;;11.40;99.90;;;;;;4969392;28;20050;-82
2021/11/30 15:11:59;;;;;;;2.70;0.70;;;11.40;99.90;;;;;;4970164;28;20070;-84
2021/11/30 15:14:36;;;;;;;5.88;0.82;;;11.40;99.90;;;;;;4967496;28;20047;-83
2021/11/30 15:17:12;;;;;;;3.72;0.65;;;11.40;99.90;;;;;;4968828;28;20057;-82
2021/11/30 15:19:49;;;;;;;6.57;0.93;;;11.40;99.90;;;;;;4968225;28;20110;-83
2021/11/30 15:22:17;;;;;;;4.57;0.80;;;11.30;99.90;;;;;;4966231;28;20050;-82
2021/11/30 15:24:48;;;;;;;2.17;0.82;;;11.30;99.90;;;;;;4966230;28;20043;-82
2021/11/30 15:27:44;;;;;;;2.97;0.60;;;11.30;99.90;;;;;;4963497;28;20050;-83
2021/11/30 15:30:17;;;;;;;2.95;0.73;;;11.20;99.90;;;;;;4964977;28;20150;-83
2021/11/30 15:32:44;;;;;;;8.75;0.93;;;11.20;99.90;;;;;;4967164;28;20042;-82
2021/11/30 15:35:12;;;;;;;4.45;0.57;;;11.20;99.90;;;;;;4966819;28;20117;-81
2021/11/30 15:37:41;;;;;;;;;;;11.20;99.90;;;;;;4965559;28;20050;-84
2021/11/30 15:40:08;;;;;;;4.72;0.70;;;11.20;99.90;;;;;;4964667;28;20401;-83
2021/11/30 15:42:35;;;;;;;4.85;0.65;;;11.10;99.90;;;;;;4963656;28;20050;-83
2021/11/30 15:45:03;;;;;;;5.25;0.80;;;11.10;99.90;;;;;;4968144;28;20405;-83
2021/11/30 15:47:30;;;;;;;2.65;0.60;;;11.00;99.90;;;;;;4963814;28;20109;-82
2021/11/30 15:49:57;;;;;;;5.55;0.85;;;11.00;99.90;;;;;;4965875;28;20058;-82
2021/11/30 15:52:28;;;;;;;6.63;1.00;;;11.00;99.90;;;;;;4967218;28;20078;-83
2021/11/30 15:54:56;;;;;;;7.35;0.70;;;11.00;99.90;;;;;;4960590;28;20042;-83
2021/11/30 15:57:24;;;;;;;3.53;0.90;;;10.90;99.90;;;;;;4962758;28;20050;-83
2021/11/30 15:59:56;;;;;;;2.10;0.65;;;10.90;99.90;;;;;;4962753;28;20053;-83
2021/11/30 16:02:26;;;;;;;5.47;0.70;;;10.90;99.90;;;;;;4946721;28;20078;-83
2021/11/30 16:04:56;;;;;;;9.10;0.95;;;10.80;99.90;;;;;;4929661;29;20113;-83
2021/11/30 16:07:24;;;;;;;2.95;0.73;;;10.80;99.90;;;;;;4944949;29;20467;-82
2021/11/30 16:09:51;;;;;;;2.33;0.60;;;10.80;99.90;;;;;;4945928;29;20093;-83
2021/11/30 16:12:18;;;;;;;4.90;0.75;;;10.70;99.90;;;;;;4945995;29;20043;-83
2021/11/30 16:14:45;;;;;;;9.23;0.88;;;10.70;99.90;;;;;;4945649;28;20102;-82
2021/11/30 16:17:12;;;;;;;8.32;0.90;;;10.70;99.90;;;;;;4947865;28;20054;-82
2021/11/30 16:19:39;;;;;;;6.70;1.33;;;10.60;99.90;;;;;;4944191;29;20051;-82
2021/11/30 16:22:07;;;;;;;9.45;1.20;;;10.60;99.90;;;;;;4945069;29;20106;-81
2021/11/30 16:24:35;;;;;;;4.22;1.25;;;10.60;99.90;;;;;;4948331;29;20047;-82
2021/11/30 16:27:02;;;;;;;4.73;0.70;;;10.60;99.90;;;;;;4946780;29;20058;-82
2021/11/30 16:29:30;;;;;;;8.77;0.93;;;10.60;99.90;;;;;;4940797;29;20111;-83
2021/11/30 16:31:57;;;;;;;5.03;1.20;;;10.60;99.90;;;;;;4929381;29;20114;-82
2021/11/30 16:34:28;;;;;;;4.45;0.73;;;10.60;99.90;;;;;;4943461;29;20059;-82
2021/11/30 16:36:56;;;;;;;5.80;0.80;;;10.60;99.90;;;;;;4943593;28;20058;-81
2021/11/30 16:39:28;;;;;;;6.72;0.75;;;10.60;99.90;;;;;;4943914;29;20047;-82
2021/11/30 16:41:55;;;;;;;4.78;0.70;;;10.60;99.90;;;;;;4944181;29;20047;-81
2021/11/30 16:44:22;;;;;;;2.28;1.00;;;10.60;99.90;;;;;;4925556;29;20459;-80
2021/11/30 16:46:50;;;;;;;4.30;0.80;;;10.60;99.90;;;;;;4926608;29;20072;-81
2021/11/30 16:49:17;;;;;;;5.15;0.90;;;10.60;99.90;;;;;;4943483;29;20291;-81
2021/11/30 16:51:45;;;;;;;6.35;0.80;;;10.60;99.90;;;;;;4942576;29;20066;-81
2021/11/30 16:54:13;;;;;;;1.77;0.60;;;10.60;99.90;;;;;;4943056;29;20047;-81
2021/11/30 16:56:42;;;;;;;7.07;0.70;;;10.60;99.90;;;;;;4944118;29;20043;-81
2021/11/30 16:59:11;;;;;;;3.97;0.73;;;10.60;99.90;;;;;;4940727;29;20592;-83
2021/11/30 17:01:39;;;;;;;4.13;1.10;;;10.60;99.90;;;;;;4942216;28;20063;-81
2021/11/30 17:04:06;;;;;;;7.15;1.08;;;10.60;99.90;;;;;;4943097;28;20043;-82
2021/11/30 17:06:33;;;;;;;4.47;0.57;;;10.60;99.90;;;;;;4942545;28;20114;-81
2021/11/30 17:09:00;;;;;;;3.83;0.70;;;10.60;99.90;;;;;;4941837;29;20113;-81
2021/11/30 17:11:27;;;;;;;2.25;0.50;;;10.60;99.90;;;;;;4944123;28;20055;-82
2021/11/30 17:13:54;;;;;;;3.67;0.80;;;10.60;99.90;;;;;;4934618;29;20051;-83
2021/11/30 17:16:21;;;;;;;5.13;2.53;;;10.60;99.90;;;;;;4942055;28;20047;-81
2021/11/30 17:18:50;;;;;;;4.95;2.42;;;10.60;99.90;;;;;;4945907;28;20130;-81
2021/11/30 17:21:22;;;;;;;7.70;2.63;;;10.70;99.90;;;;;;4942920;28;20539;-81
2021/11/30 17:23:52;;;;;;;7.53;2.13;;;10.60;99.90;;;;;;4947054;29;20051;-82
2021/11/30 17:26:24;;;;;;;12.65;6.70;;;10.60;99.90;;;;;;4940488;28;20047;-81
2021/11/30 17:28:53;;;;;;;5.55;2.42;;;10.60;99.90;;;;;;4927224;29;20062;-80
2021/11/30 17:31:20;;;;;;;;;;;10.70;99.90;;;;;;4944179;28;20047;-81
2021/11/30 17:33:47;;;;;;;3.63;1.33;;;10.60;99.90;;;;;;4927450;29;19933;-81
2021/11/30 17:36:15;;;;;;;5.40;1.75;;;10.60;99.90;;;;;;4945818;28;20043;-81
2021/11/30 17:38:42;;;;;;;4.00;0.77;;;10.60;99.90;;;;;;4940962;28;20044;-82
2021/11/30 17:41:10;;;;;;;5.50;1.30;;;10.70;99.90;;;;;;4945802;28;20046;-82
2021/11/30 17:43:37;;;;;;;8.50;1.80;;;10.70;99.90;;;;;;4943149;28;20609;-80
2021/11/30 17:46:05;;;;;;;5.03;0.90;;;10.60;99.90;;;;;;4941926;29;20484;-81
2021/11/30 17:48:36;;;;;;;7.90;1.23;;;10.70;99.90;;;;;;4941917;28;20095;-82
2021/11/30 17:51:04;;;;;;;4.30;1.48;;;10.70;99.90;;;;;;4924849;29;20107;-81
2021/11/30 17:53:32;;;;;;;3.63;1.20;;;10.70;99.90;;;;;;4942193;29;20487;-81
2021/11/30 17:56:01;;;;;;;3.90;1.10;;;10.70;99.90;;;;;;4943779;28;20110;-82
2021/11/30 17:58:28;;;;;;;3.47;0.60;;;10.70;99.90;;;;;;4924566;28;20039;-82
2021/11/30 18:00:55;;;;;;;6.63;1.40;;;10.70;99.90;;;;;;4935434;28;20043;-82
2021/11/30 18:03:24;;;;;;;6.00;0.93;;;10.70;99.90;;;;;;4961691;28;20051;-84
2021/11/30 18:05:52;;;;;;;;;;;10.70;99.90;;;;;;4962873;28;20058;-82
2021/11/30 18:08:19;;;;;;;7.28;1.90;;;10.70;99.90;;;;;;4958350;28;20300;-83
2021/11/30 18:10:47;;;;;;;4.60;0.90;;;10.60;99.90;;;;;;4959393;28;20097;-81
2021/11/30 18:13:14;;;;;;;6.38;1.00;;;10.60;99.90;;;;;;4963180;28;20055;-81
2021/11/30 18:15:43;;;;;;;5.95;1.17;;;10.60;99.90;;;;;;4957947;28;20077;-80
2021/11/30 18:18:11;;;;;;;5.57;1.02;;;10.70;99.90;;;;;;4961977;28;20046;-81
2021/11/30 18:20:38;;;;;;;7.72;1.15;;;10.60;99.90;;;;;;4962270;28;20105;-80
2021/11/30 18:23:05;;;;;;;7.95;3.38;;;10.60;99.90;;;;;;4962290;28;20062;-81
2021/11/30 18:25:33;;;;;;;7.10;2.58;;;10.60;99.90;;;;;;4960364;28;20068;-81
2021/11/30 18:28:01;;;;;;;9.50;5.57;;;10.60;99.90;;;;;;4965614;28;20051;-82
2021/11/30 18:30:29;;;;;;;6.75;4.28;;;10.60;99.90;;;;;;4959693;28;20102;-82
2021/11/30 18:32:56;;;;;;;4.27;2.40;;;10.60;99.90;;;;;;4958800;28;20054;-84
2021/11/30 18:35:23;;;;;;;6.25;2.05;;;10.60;99.90;;;;;;4960864;28;20286;-81
2021/11/30 18:37:50;;;;;;;4.45;1.48;;;10.70;99.90;;;;;;4962221;28;20519;-80
2021/11/30 18:40:27;;;;;;;4.78;1.58;;;10.60;99.90;;;;;;4966504;28;20046;-80
2021/11/30 18:42:56;;;;;;;5.65;1.17;;;10.60;99.90;;;;;;4963458;28;20050;-81
2021/11/30 18:45:23;;;;;;;14.63;4.18;;;10.60;99.90;;;;;;4964955;28;20045;-81
2021/11/30 18:47:53;;;;;;;7.38;2.45;;;10.60;99.90;;;;;;4963982;28;20039;-79
2021/11/30 18:50:20;;;;;;;12.05;2.80;;;10.60;99.90;;;;;;4964877;28;20062;-80
2021/11/30 18:52:48;;;;;;;9.40;2.58;;;10.60;99.90;;;;;;4964722;28;20066;-81
2021/11/30 18:55:15;;;;;;;6.65;1.75;;;10.60;99.90;;;;;;4963802;28;20046;-81
2021/11/30 18:57:42;;;;;;;11.70;1.50;;;10.50;99.90;;;;;;4962810;28;20055;-82
2021/11/30 19:00:13;;;;;;;7.80;1.52;;;10.50;99.90;;;;;;4964491;28;20062;-81
2021/11/30 19:02:40;;;;;;;8.50;2.28;;;10.60;99.90;;;;;;4947293;28;20051;-80
2021/11/30 19:05:09;;;;;;;5.90;1.73;;;10.50;99.90;;;;;;4944080;28;20122;-80
2021/11/30 19:07:36;;;;;;;7.15;1.67;;;10.60;99.90;;;;;;4938087;28;20043;-81
2021/11/30 19:10:04;;;;;;;7.95;2.00;;;10.60;99.90;;;;;;4930911;29;20062;-80
2021/11/30 19:12:35;;;;;;;14.80;4.90;;;10.60;99.90;;;;;;4930887;29;20093;-80
2021/11/30 19:15:04;;;;;;;8.88;1.83;;;10.50;99.90;;;;;;4947458;28;20317;-81
2021/11/30 19:17:30;;;;;;;10.43;2.10;;;10.60;99.90;;;;;;4947006;28;20063;-81
2021/11/30 19:19:57;;;;;;;9.25;2.67;;;10.50;99.90;;;;;;4946716;28;20050;-81
2021/11/30 19:22:25;;;;;;;8.23;1.88;;;10.50;99.90;;;;;;4931004;28;20046;-80
2021/11/30 19:24:52;;;;;;;14.02;1.90;;;10.50;99.90;;;;;;4948088;28;20055;-80
2021/11/30 19:27:19;;;;;;;7.22;2.55;;;10.60;99.90;;;;;;4945576;28;20079;-81
2021/11/30 19:29:46;;;;;;;4.43;1.33;;;10.60;99.90;;;;;;4930440;29;20075;-81
2021/11/30 19:32:13;;;;;;;7.10;1.40;;;10.60;99.90;;;;;;4948926;28;20047;-80
2021/11/30 19:34:41;;;;;;;8.40;1.13;;;10.60;99.90;;;;;;4949860;28;20051;-81
2021/11/30 19:37:17;;;;;;;12.13;1.40;;;10.60;99.90;;;;;;4949266;28;20488;-81
2021/11/30 19:39:46;;;;;;;7.15;1.13;;;10.60;99.90;;;;;;4948875;28;20146;-81
2021/11/30 19:42:15;;;;;;;5.60;1.13;;;10.70;99.90;;;;;;4945517;28;20051;-81
2021/11/30 19:44:43;;;;;;;12.30;1.13;;;10.70;99.90;;;;;;4940328;28;20043;-81
2021/11/30 19:47:10;;;;;;;9.55;2.00;;;10.70;99.90;;;;;;4947038;28;20043;-82
2021/11/30 19:49:43;;;;;;;9.73;1.83;;;10.80;99.90;;;;;;4928220;28;20608;-82
2021/11/30 19:52:11;;;;;;;10.60;1.63;;;10.80;99.90;;;;;;4921596;28;20043;-83
2021/11/30 19:54:39;;;;;;;8.70;1.50;;;10.70;99.90;;;;;;4943055;28;20074;-82
2021/11/30 19:57:12;;;;;;;10.80;1.85;;;10.80;99.90;;;;;;4946087;28;20534;-81
2021/11/30 19:59:44;;;;;;;11.77;2.17;;;10.80;99.90;;;;;;4946685;28;20129;-82
2021/11/30 20:07:43;;;;;;;17.92;3.42;;;10.80;99.90;;;;;;4966398;28;20846;-82
2021/11/30 20:10:10;;;;;;;14.90;2.03;;;10.80;99.90;;;;;;4968856;28;20042;-81
2021/11/30 20:12:38;;;;;;;11.80;1.63;;;10.80;99.90;;;;;;4951232;28;20051;-84
2021/11/30 20:15:29;;;;;;;8.32;0.90;;;10.80;99.90;;;;;;4965697;28;20061;-82
2021/11/30 20:18:03;;;;;;;10.57;1.58;;;10.80;99.90;;;;;;4957030;28;20053;-82
2021/11/30 20:20:32;;;;;;;10.15;1.80;;;10.80;99.90;;;;;;4959229;28;20500;-83
2021/11/30 20:22:59;;;;;;;;;;;10.80;99.90;;;;;;4949043;28;20053;-82